M/T Pazar — TCMC — position and weather

sailwx.info

Track history (hours):
 
Tides and Currents Weather Stations Pressure Air Temp Water Temp Dewpoint Dewpoint Depression Visibility Wind Speed Wind Dir Waves Ship Positions

M/T Pazar

Last reported at 2017-May-24 04:54 UTC. Time now 2017-May-29 09:47 UTC.
Position N 37°05' W 009°41'.

Length 85 m; draft 4.2 m.

Type: Tanker. MMSI: 271000251.

Date/timePositionNaut miles runAvg speedWind from/ knotsBaromVisibWave heightAir tempDewpointWater temp
2017-May-24 04:54N 37°05' W 009°41'410.7
2017-May-24 04:30N 37°09' W 009°39'510.6
2017-May-24 04:00N 37°14' W 009°36'510.7
2017-May-24 03:30N 37°19' W 009°33'510.5
2017-May-24 03:00N 37°24' W 009°30'510.3
2017-May-24 02:30N 37°28' W 009°28'510.3
2017-May-24 02:00N 37°33' W 009°25'510.3
2017-May-24 01:29N 37°38' W 009°22'510.0
2017-May-24 01:00N 37°42' W 009°19'5 9.9
2017-May-24 00:30N 37°47' W 009°17'510.7
2017-May-24 00:00N 37°51' W 009°14'510.8
2017-May-23 23:30N 37°56' W 009°11'510.8
2017-May-23 23:00N 38°01' W 009°09'510.4
2017-May-23 22:30N 38°06' W 009°07'510.4
2017-May-23 22:00N 38°11' W 009°05'510.4
2017-May-23 21:30N 38°16' W 009°04'510.1
2017-May-23 21:00N 38°21' W 009°02'510.1
2017-May-23 20:30N 38°26' W 008°59'4 8.8
2017-May-23 20:00N 38°29' W 008°56'3 6.9
2017-May-23 19:30N 38°30' W 008°51'0 0.3
2017-May-23 18:58N 38°31' W 008°51'0 0.0
2017-May-23 18:25N 38°31' W 008°51'0 0.0
2017-May-23 17:55N 38°31' W 008°51'0 0.0
2017-May-23 17:22N 38°31' W 008°51'0 0.0
2017-May-23 16:52N 38°31' W 008°51'0 0.0
2017-May-23 16:25N 38°31' W 008°51'0 0.0
2017-May-23 15:52N 38°31' W 008°51'0 0.0
2017-May-23 15:13N 38°31' W 008°51'0 0.0
2017-May-22 12:31N 38°31' W 008°51'0 0.1
2017-May-22 12:07N 38°31' W 008°51'0 3.7
2017-May-22 11:59N 38°31' W 008°52'1 0.2
2017-May-22 04:02N 38°31' W 008°54'0 0.0
2017-May-22 03:50N 38°31' W 008°54'0 0.0
2017-May-22 03:23N 38°31' W 008°54'0 0.0
2017-May-22 01:59N 38°31' W 008°54'0 0.0
2017-May-22 01:20N 38°31' W 008°54'0 0.0
2017-May-22 00:53N 38°31' W 008°54'0 0.0
2017-May-22 00:29N 38°31' W 008°54'0 0.0
2017-May-21 19:05N 38°31' W 008°54'0 0.0
2017-May-21 18:44N 38°31' W 008°54'0 0.0
2017-May-21 16:35N 38°31' W 008°54'0 0.1
2017-May-21 16:29N 38°31' W 008°54'1 2.1
2017-May-21 15:59N 38°30' W 008°55'4 8.4
2017-May-21 15:31N 38°27' W 008°58'4 7.3
2017-May-21 15:00N 38°24' W 009°01'2 3.8
2017-May-21 14:31N 38°22' W 009°00'8 8.5
2017-May-21 13:31N 38°14' W 009°05'5 9.2
2017-May-21 13:01N 38°10' W 009°07'5 9.3
2017-May-21 12:30N 38°06' W 009°10'5 9.2
2017-May-21 12:01N 38°02' W 009°12'5 9.1
2017-May-21 11:31N 37°58' W 009°15'5 9.3
2017-May-21 11:01N 37°54' W 009°18'5 9.2
2017-May-21 10:31N 37°50' W 009°20'5 9.3
2017-May-21 10:01N 37°45' W 009°23'5 9.0
2017-May-21 09:30N 37°41' W 009°26'85 7.8
2017-May-20 22:42N 36°17' W 009°28'2 9.1
2017-May-20 22:30N 36°15' W 009°27'5 9.1
2017-May-20 21:59N 36°11' W 009°24'4 9.0
2017-May-20 21:30N 36°08' W 009°20'28 8.9
2017-May-20 18:20N 35°45' W 008°60'3 7.8
2017-May-20 17:59N 35°43' W 008°58'5 7.1
2017-May-20 17:20N 35°40' W 008°54'2 7.0
2017-May-20 16:59N 35°37' W 008°54'36 7.3
2017-May-20 12:01N 35°01' W 008°51'0 7.7
2017-May-20 11:58N 35°01' W 008°51'4 7.6
2017-May-20 11:30N 34°57' W 008°51'4 7.6
2017-May-20 11:00N 34°53' W 008°51'3 5.7
2017-May-20 10:26N 34°51' W 008°49'  
2017-May-16 21:18N 36°00' W 005°27'3 9.4
2017-May-16 20:58N 36°01' W 005°23'5 9.7
2017-May-16 20:30N 36°03' W 005°18'22510.0
2017-May-15 22:01N 36°38' W 000°42'010.7
2017-May-15 21:58N 36°38' W 000°41'1010.7
2017-May-15 21:03N 36°40' W 000°29'010.9
2017-May-15 21:00N 36°40' W 000°29'2910.5
2017-May-15 18:15N 36°44' E 000°07'310.6
2017-May-15 17:59N 36°44' E 000°11'510.6
2017-May-15 17:29N 36°45' E 000°17'510.7
2017-May-15 17:00N 36°46' E 000°24'610.5
2017-May-15 16:23N 36°47' E 000°32'410.3
2017-May-15 16:00N 36°47' E 000°36'510.1
2017-May-15 15:30N 36°48' E 000°43'510.4
2017-May-15 15:00N 36°49' E 000°49'510.5
2017-May-15 14:30N 36°50' E 000°56'1110.6
2017-May-15 13:30N 36°51' E 001°09'510.4
2017-May-15 13:00N 36°52' E 001°15'510.4
2017-May-15 12:30N 36°53' E 001°22'1210.3
2017-May-15 11:19N 36°54' E 001°37'310.7
2017-May-15 10:59N 36°55' E 001°41'510.8
2017-May-15 10:30N 36°56' E 001°48'510.8
2017-May-15 10:00N 36°56' E 001°54'2810.9
2017-May-15 07:28N 36°60' E 002°29'510.7
2017-May-15 06:58N 37°00' E 002°35'510.5
2017-May-15 06:30N 37°01' E 002°41'510.4
2017-May-15 06:00N 37°02' E 002°48'510.3
2017-May-15 05:30N 37°02' E 002°54'510.3
2017-May-15 05:00N 37°03' E 003°01'  
Track history (hours):
 
Tides and Currents Weather Stations Pressure Air Temp Water Temp Dewpoint Dewpoint Depression Visibility Wind Speed Wind Dir Waves Ship Positions

M/T Pazar

Last reported at 2017-May-24 04:54 UTC. Time now 2017-May-29 09:47 UTC.
Position N 37°05' W 009°41'.

Length 85 m; draft 4.2 m.

Type: Tanker. MMSI: 271000251.

Date/timePositionNaut miles runAvg speedWind from/ knotsBaromVisibWave heightAir tempDewpointWater temp
2017-May-24 04:54N 37°05' W 009°41'410.7
2017-May-24 04:30N 37°09' W 009°39'510.6
2017-May-24 04:00N 37°14' W 009°36'510.7
2017-May-24 03:30N 37°19' W 009°33'510.5
2017-May-24 03:00N 37°24' W 009°30'510.3
2017-May-24 02:30N 37°28' W 009°28'510.3
2017-May-24 02:00N 37°33' W 009°25'510.3
2017-May-24 01:29N 37°38' W 009°22'510.0
2017-May-24 01:00N 37°42' W 009°19'5 9.9
2017-May-24 00:30N 37°47' W 009°17'510.7
2017-May-24 00:00N 37°51' W 009°14'510.8
2017-May-23 23:30N 37°56' W 009°11'510.8
2017-May-23 23:00N 38°01' W 009°09'510.4
2017-May-23 22:30N 38°06' W 009°07'510.4
2017-May-23 22:00N 38°11' W 009°05'510.4
2017-May-23 21:30N 38°16' W 009°04'510.1
2017-May-23 21:00N 38°21' W 009°02'510.1
2017-May-23 20:30N 38°26' W 008°59'4 8.8
2017-May-23 20:00N 38°29' W 008°56'3 6.9
2017-May-23 19:30N 38°30' W 008°51'0 0.3
2017-May-23 18:58N 38°31' W 008°51'0 0.0
2017-May-23 18:25N 38°31' W 008°51'0 0.0
2017-May-23 17:55N 38°31' W 008°51'0 0.0
2017-May-23 17:22N 38°31' W 008°51'0 0.0
2017-May-23 16:52N 38°31' W 008°51'0 0.0
2017-May-23 16:25N 38°31' W 008°51'0 0.0
2017-May-23 15:52N 38°31' W 008°51'0 0.0
2017-May-23 15:13N 38°31' W 008°51'0 0.0
2017-May-22 12:31N 38°31' W 008°51'0 0.1
2017-May-22 12:07N 38°31' W 008°51'0 3.7
2017-May-22 11:59N 38°31' W 008°52'1 0.2
2017-May-22 04:02N 38°31' W 008°54'0 0.0
2017-May-22 03:50N 38°31' W 008°54'0 0.0
2017-May-22 03:23N 38°31' W 008°54'0 0.0
2017-May-22 01:59N 38°31' W 008°54'0 0.0
2017-May-22 01:20N 38°31' W 008°54'0 0.0
2017-May-22 00:53N 38°31' W 008°54'0 0.0
2017-May-22 00:29N 38°31' W 008°54'0 0.0
2017-May-21 19:05N 38°31' W 008°54'0 0.0
2017-May-21 18:44N 38°31' W 008°54'0 0.0
2017-May-21 16:35N 38°31' W 008°54'0 0.1
2017-May-21 16:29N 38°31' W 008°54'1 2.1
2017-May-21 15:59N 38°30' W 008°55'4 8.4
2017-May-21 15:31N 38°27' W 008°58'4 7.3
2017-May-21 15:00N 38°24' W 009°01'2 3.8
2017-May-21 14:31N 38°22' W 009°00'8 8.5
2017-May-21 13:31N 38°14' W 009°05'5 9.2
2017-May-21 13:01N 38°10' W 009°07'5 9.3
2017-May-21 12:30N 38°06' W 009°10'5 9.2
2017-May-21 12:01N 38°02' W 009°12'5 9.1
2017-May-21 11:31N 37°58' W 009°15'5 9.3
2017-May-21 11:01N 37°54' W 009°18'5 9.2
2017-May-21 10:31N 37°50' W 009°20'5 9.3
2017-May-21 10:01N 37°45' W 009°23'5 9.0
2017-May-21 09:30N 37°41' W 009°26'85 7.8
2017-May-20 22:42N 36°17' W 009°28'2 9.1
2017-May-20 22:30N 36°15' W 009°27'5 9.1
2017-May-20 21:59N 36°11' W 009°24'4 9.0
2017-May-20 21:30N 36°08' W 009°20'28 8.9
2017-May-20 18:20N 35°45' W 008°60'3 7.8
2017-May-20 17:59N 35°43' W 008°58'5 7.1
2017-May-20 17:20N 35°40' W 008°54'2 7.0
2017-May-20 16:59N 35°37' W 008°54'36 7.3
2017-May-20 12:01N 35°01' W 008°51'0 7.7
2017-May-20 11:58N 35°01' W 008°51'4 7.6
2017-May-20 11:30N 34°57' W 008°51'4 7.6
2017-May-20 11:00N 34°53' W 008°51'3 5.7
2017-May-20 10:26N 34°51' W 008°49'  
2017-May-16 21:18N 36°00' W 005°27'3 9.4
2017-May-16 20:58N 36°01' W 005°23'5 9.7
2017-May-16 20:30N 36°03' W 005°18'22510.0
2017-May-15 22:01N 36°38' W 000°42'010.7
2017-May-15 21:58N 36°38' W 000°41'1010.7
2017-May-15 21:03N 36°40' W 000°29'010.9
2017-May-15 21:00N 36°40' W 000°29'2910.5
2017-May-15 18:15N 36°44' E 000°07'310.6
2017-May-15 17:59N 36°44' E 000°11'510.6
2017-May-15 17:29N 36°45' E 000°17'510.7
2017-May-15 17:00N 36°46' E 000°24'610.5
2017-May-15 16:23N 36°47' E 000°32'410.3
2017-May-15 16:00N 36°47' E 000°36'510.1
2017-May-15 15:30N 36°48' E 000°43'510.4
2017-May-15 15:00N 36°49' E 000°49'510.5
2017-May-15 14:30N 36°50' E 000°56'1110.6
2017-May-15 13:30N 36°51' E 001°09'510.4
2017-May-15 13:00N 36°52' E 001°15'510.4
2017-May-15 12:30N 36°53' E 001°22'1210.3
2017-May-15 11:19N 36°54' E 001°37'310.7
2017-May-15 10:59N 36°55' E 001°41'510.8
2017-May-15 10:30N 36°56' E 001°48'510.8
2017-May-15 10:00N 36°56' E 001°54'2810.9
2017-May-15 07:28N 36°60' E 002°29'510.7
2017-May-15 06:58N 37°00' E 002°35'510.5
2017-May-15 06:30N 37°01' E 002°41'510.4
2017-May-15 06:00N 37°02' E 002°48'510.3
2017-May-15 05:30N 37°02' E 002°54'510.3
2017-May-15 05:00N 37°03' E 003°01'  

Dump ship's entire track history